sensor_id;sensor_type;location;lat;lon;timestamp;pressure;altitude;pressure_sealevel;temperature;humidity
45525;BME280;31437;58.350;13.828;2022-12-22T00:02:41;98129.63;;;2.08;nan
45525;BME280;31437;58.350;13.828;2022-12-22T00:05:25;98127.03;;;2.08;nan
45525;BME280;31437;58.350;13.828;2022-12-22T00:08:09;98118.53;;;2.06;nan
45525;BME280;31437;58.350;13.828;2022-12-22T00:10:53;98120.19;;;2.07;nan
45525;BME280;31437;58.350;13.828;2022-12-22T00:13:38;98115.94;;;2.06;nan
45525;BME280;31437;58.350;13.828;2022-12-22T00:16:23;98117.66;;;2.05;nan
45525;BME280;31437;58.350;13.828;2022-12-22T00:19:12;98114.25;;;2.05;nan
45525;BME280;31437;58.350;13.828;2022-12-22T00:24:55;98109.25;;;2.02;nan
45525;BME280;31437;58.350;13.828;2022-12-22T00:30:15;98097.31;;;1.99;nan
45525;BME280;31437;58.350;13.828;2022-12-22T00:32:51;98111.16;;;1.98;nan
45525;BME280;31437;58.350;13.828;2022-12-22T00:35:36;98104.22;;;1.99;nan
45525;BME280;31437;58.350;13.828;2022-12-22T00:38:20;98110.41;;;1.96;nan
45525;BME280;31437;58.350;13.828;2022-12-22T00:41:04;98107.81;;;1.96;nan
45525;BME280;31437;58.350;13.828;2022-12-22T00:43:48;98107.91;;;1.95;nan
45525;BME280;31437;58.350;13.828;2022-12-22T00:46:33;98110.56;;;1.93;nan
45525;BME280;31437;58.350;13.828;2022-12-22T00:49:18;98113.16;;;1.93;nan
45525;BME280;31437;58.350;13.828;2022-12-22T00:52:02;98105.47;;;1.92;nan
45525;BME280;31437;58.350;13.828;2022-12-22T00:54:47;98105.47;;;1.92;nan
45525;BME280;31437;58.350;13.828;2022-12-22T00:57:31;98104.72;;;1.90;nan
45525;BME280;31437;58.350;13.828;2022-12-22T01:00:16;98091.78;;;1.90;nan
45525;BME280;31437;58.350;13.828;2022-12-22T01:03:02;98098.72;;;1.89;nan
45525;BME280;31437;58.350;13.828;2022-12-22T01:08:21;98092.72;;;1.89;nan
45525;BME280;31437;58.350;13.828;2022-12-22T01:11:13;98092.00;;;1.85;nan
45525;BME280;31437;58.350;13.828;2022-12-22T01:13:58;98084.34;;;1.84;nan
45525;BME280;31437;58.350;13.828;2022-12-22T01:16:42;98098.22;;;1.83;nan
45525;BME280;31437;58.350;13.828;2022-12-22T01:21:56;98092.94;;;1.84;nan
45525;BME280;31437;58.350;13.828;2022-12-22T01:24:40;98084.25;;;1.85;nan
45525;BME280;31437;58.350;13.828;2022-12-22T01:27:24;98085.13;;;1.86;nan
45525;BME280;31437;58.350;13.828;2022-12-22T01:30:08;98084.25;;;1.85;nan
45525;BME280;31437;58.350;13.828;2022-12-22T01:32:53;98085.03;;;1.87;nan
45525;BME280;31437;58.350;13.828;2022-12-22T01:35:37;98085.03;;;1.87;nan
45525;BME280;31437;58.350;13.828;2022-12-22T01:38:21;98079.84;;;1.87;nan
45525;BME280;31437;58.350;13.828;2022-12-22T01:41:08;98083.28;;;1.88;nan
45525;BME280;31437;58.350;13.828;2022-12-22T01:43:53;98090.13;;;1.89;nan
45525;BME280;31437;58.350;13.828;2022-12-22T01:46:41;98083.28;;;1.88;nan
45525;BME280;31437;58.350;13.828;2022-12-22T01:49:31;98082.44;;;1.87;nan
45525;BME280;31437;58.350;13.828;2022-12-22T01:52:18;98074.63;;;1.89;nan
45525;BME280;31437;58.350;13.828;2022-12-22T01:55:08;98077.19;;;1.89;nan
45525;BME280;31437;58.350;13.828;2022-12-22T01:57:54;98073.69;;;1.90;nan
45525;BME280;31437;58.350;13.828;2022-12-22T02:00:38;98066.75;;;1.90;nan
45525;BME280;31437;58.350;13.828;2022-12-22T02:03:23;98067.69;;;1.89;nan
45525;BME280;31437;58.350;13.828;2022-12-22T02:09:08;98069.28;;;1.92;nan
45525;BME280;31437;58.350;13.828;2022-12-22T02:12:07;98072.69;;;1.92;nan
45525;BME280;31437;58.350;13.828;2022-12-22T02:14:58;98063.84;;;1.96;nan
45525;BME280;31437;58.350;13.828;2022-12-22T02:20:59;98060.28;;;1.99;nan
45525;BME280;31437;58.350;13.828;2022-12-22T02:26:41;98055.88;;;2.01;nan
45525;BME280;31437;58.350;13.828;2022-12-22T02:29:38;98055.75;;;2.02;nan
45525;BME280;31437;58.350;13.828;2022-12-22T02:32:24;98047.00;;;2.05;nan
45525;BME280;31437;58.350;13.828;2022-12-22T02:35:12;98048.69;;;2.06;nan
45525;BME280;31437;58.350;13.828;2022-12-22T02:40:52;98053.78;;;2.08;nan
45525;BME280;31437;58.350;13.828;2022-12-22T02:46:30;98044.19;;;2.10;nan
45525;BME280;31437;58.350;13.828;2022-12-22T02:49:26;98046.78;;;2.10;nan
45525;BME280;31437;58.350;13.828;2022-12-22T02:52:14;98049.28;;;2.11;nan
45525;BME280;31437;58.350;13.828;2022-12-22T02:54:59;98047.59;;;2.10;nan
45525;BME280;31437;58.350;13.828;2022-12-22T02:57:44;98051.78;;;2.13;nan
45525;BME280;31437;58.350;13.828;2022-12-22T03:00:28;98056.78;;;2.16;nan
45525;BME280;31437;58.350;13.828;2022-12-22T03:03:12;98057.56;;;2.18;nan
45525;BME280;31437;58.350;13.828;2022-12-22T03:05:56;98061.81;;;2.19;nan
45525;BME280;31437;58.350;13.828;2022-12-22T03:08:40;98048.78;;;2.20;nan
45525;BME280;31437;58.350;13.828;2022-12-22T03:11:24;98058.22;;;2.21;nan
45525;BME280;31437;58.350;13.828;2022-12-22T03:14:08;98058.13;;;2.23;nan
45525;BME280;31437;58.350;13.828;2022-12-22T03:16:53;98059.81;;;2.24;nan
45525;BME280;31437;58.350;13.828;2022-12-22T03:19:36;98054.53;;;2.25;nan
45525;BME280;31437;58.350;13.828;2022-12-22T03:22:21;98049.28;;;2.27;nan
45525;BME280;31437;58.350;13.828;2022-12-22T03:25:05;98047.53;;;2.27;nan
45525;BME280;31437;58.350;13.828;2022-12-22T03:27:49;98047.44;;;2.29;nan
45525;BME280;31437;58.350;13.828;2022-12-22T03:30:14;98049.03;;;2.32;nan
45525;BME280;31437;58.350;13.828;2022-12-22T03:32:39;98050.78;;;2.31;nan
45525;BME280;31437;58.350;13.828;2022-12-22T03:35:05;98049.84;;;2.32;nan
45525;BME280;31437;58.350;13.828;2022-12-22T03:37:30;98054.97;;;2.34;nan
45525;BME280;31437;58.350;13.828;2022-12-22T03:39:56;98048.84;;;2.35;nan
45525;BME280;31437;58.350;13.828;2022-12-22T03:42:21;98043.69;;;2.35;nan
45525;BME280;31437;58.350;13.828;2022-12-22T04:16:06;98022.53;;;2.58;nan
45525;BME280;31437;58.350;13.828;2022-12-22T05:17:59;97970.28;;;2.82;nan
45525;BME280;31437;58.350;13.828;2022-12-22T05:25:35;97966.78;;;2.83;nan
45525;BME280;31437;58.350;13.828;2022-12-22T05:28:00;97973.44;;;2.87;nan
45525;BME280;31437;58.350;13.828;2022-12-22T05:40:47;97960.59;;;2.85;nan
45525;BME280;31437;58.350;13.828;2022-12-22T05:43:12;97965.75;;;2.85;nan
45525;BME280;31437;58.350;13.828;2022-12-22T05:45:37;97964.84;;;2.86;nan
45525;BME280;31437;58.350;13.828;2022-12-22T05:55:48;97963.09;;;2.87;nan
45525;BME280;31437;58.350;13.828;2022-12-22T05:58:13;97962.28;;;2.86;nan
45525;BME280;31437;58.350;13.828;2022-12-22T06:00:38;97956.34;;;2.84;nan
45525;BME280;31437;58.350;13.828;2022-12-22T06:03:04;97954.03;;;2.80;nan
45525;BME280;31437;58.350;13.828;2022-12-22T06:05:29;97962.06;;;2.75;nan
45525;BME280;31437;58.350;13.828;2022-12-22T06:07:54;97962.97;;;2.74;nan
45525;BME280;31437;58.350;13.828;2022-12-22T06:10:20;97952.53;;;2.76;nan
45525;BME280;31437;58.350;13.828;2022-12-22T06:12:46;97957.63;;;2.77;nan
45525;BME280;31437;58.350;13.828;2022-12-22T06:15:12;97957.63;;;2.77;nan
45525;BME280;31437;58.350;13.828;2022-12-22T06:17:38;97951.50;;;2.78;nan
45525;BME280;31437;58.350;13.828;2022-12-22T06:20:04;97959.09;;;2.81;nan
45525;BME280;31437;58.350;13.828;2022-12-22T06:22:29;97956.50;;;2.81;nan
45525;BME280;31437;58.350;13.828;2022-12-22T06:30:05;97939.03;;;2.85;nan
45525;BME280;31437;58.350;13.828;2022-12-22T06:48:01;97940.88;;;2.53;nan
45525;BME280;31437;58.350;13.828;2022-12-22T06:50:27;97942.00;;;2.48;nan
45525;BME280;31437;58.350;13.828;2022-12-22T06:52:52;97936.06;;;2.46;nan
45525;BME280;31437;58.350;13.828;2022-12-22T06:55:18;97938.75;;;2.45;nan
45525;BME280;31437;58.350;13.828;2022-12-22T06:57:43;97939.59;;;2.45;nan
45525;BME280;31437;58.350;13.828;2022-12-22T07:00:08;97938.59;;;2.48;nan
45525;BME280;31437;58.350;13.828;2022-12-22T07:02:34;97942.75;;;2.50;nan
45525;BME280;31437;58.350;13.828;2022-12-22T07:05:00;97938.31;;;2.53;nan
45525;BME280;31437;58.350;13.828;2022-12-22T07:07:26;97940.72;;;2.56;nan
45525;BME280;31437;58.350;13.828;2022-12-22T07:09:51;97941.41;;;2.59;nan
45525;BME280;31437;58.350;13.828;2022-12-22T07:12:16;97936.94;;;2.61;nan
45525;BME280;31437;58.350;13.828;2022-12-22T07:14:42;97947.13;;;2.64;nan
45525;BME280;31437;58.350;13.828;2022-12-22T07:17:07;97938.53;;;2.64;nan
45525;BME280;31437;58.350;13.828;2022-12-22T07:19:33;97951.28;;;2.67;nan
45525;BME280;31437;58.350;13.828;2022-12-22T07:21:58;97952.88;;;2.69;nan
45525;BME280;31437;58.350;13.828;2022-12-22T07:24:23;97955.41;;;2.71;nan
45525;BME280;31437;58.350;13.828;2022-12-22T07:26:49;97956.94;;;2.73;nan
45525;BME280;31437;58.350;13.828;2022-12-22T07:29:15;97957.81;;;2.74;nan
45525;BME280;31437;58.350;13.828;2022-12-22T07:31:40;97954.28;;;2.75;nan
45525;BME280;31437;58.350;13.828;2022-12-22T07:34:05;97949.03;;;2.77;nan
45525;BME280;31437;58.350;13.828;2022-12-22T07:36:32;97951.50;;;2.78;nan
45525;BME280;31437;58.350;13.828;2022-12-22T07:39:01;97952.34;;;2.79;nan
45525;BME280;31437;58.350;13.828;2022-12-22T07:41:29;97944.56;;;2.79;nan
45525;BME280;31437;58.350;13.828;2022-12-22T07:44:13;97951.44;;;2.80;nan
45525;BME280;31437;58.350;13.828;2022-12-22T07:46:38;97946.25;;;2.80;nan
45525;BME280;31437;58.350;13.828;2022-12-22T07:49:04;97940.91;;;2.83;nan
45525;BME280;31437;58.350;13.828;2022-12-22T07:51:48;97945.16;;;2.84;nan
45525;BME280;31437;58.350;13.828;2022-12-22T07:54:14;97935.53;;;2.86;nan
45525;BME280;31437;58.350;13.828;2022-12-22T07:56:39;97939.72;;;2.88;nan
45525;BME280;31437;58.350;13.828;2022-12-22T07:59:05;97932.66;;;2.90;nan
45525;BME280;31437;58.350;13.828;2022-12-22T08:01:32;97938.59;;;2.92;nan
45525;BME280;31437;58.350;13.828;2022-12-22T08:03:57;97934.91;;;2.96;nan
45525;BME280;31437;58.350;13.828;2022-12-22T08:06:23;97934.00;;;2.98;nan
45525;BME280;31437;58.350;13.828;2022-12-22T08:08:48;97931.22;;;3.01;nan
45525;BME280;31437;58.350;13.828;2022-12-22T08:11:14;97932.81;;;3.03;nan
45525;BME280;31437;58.350;13.828;2022-12-22T08:13:39;97929.28;;;3.04;nan
45525;BME280;31437;58.350;13.828;2022-12-22T08:16:07;97924.91;;;3.05;nan
45525;BME280;31437;58.350;13.828;2022-12-22T08:18:32;97929.16;;;3.06;nan
45525;BME280;31437;58.350;13.828;2022-12-22T08:20:58;97925.75;;;3.05;nan
45525;BME280;31437;58.350;13.828;2022-12-22T08:23:23;97930.03;;;3.06;nan
45525;BME280;31437;58.350;13.828;2022-12-22T08:28:36;97926.50;;;3.07;nan
45525;BME280;31437;58.350;13.828;2022-12-22T08:31:02;97917.78;;;3.08;nan
45525;BME280;31437;58.350;13.828;2022-12-22T08:33:29;97923.72;;;3.10;nan
45525;BME280;31437;58.350;13.828;2022-12-22T08:35:54;97919.38;;;3.11;nan
45525;BME280;31437;58.350;13.828;2022-12-22T08:38:20;97920.13;;;3.13;nan
45525;BME280;31437;58.350;13.828;2022-12-22T08:40:46;97914.13;;;3.12;nan
45525;BME280;31437;58.350;13.828;2022-12-22T08:43:11;97923.47;;;3.15;nan
45525;BME280;31437;58.350;13.828;2022-12-22T08:45:37;97923.34;;;3.16;nan
45525;BME280;31437;58.350;13.828;2022-12-22T08:48:02;97930.19;;;3.17;nan
45525;BME280;31437;58.350;13.828;2022-12-22T08:50:28;97927.72;;;3.16;nan
45525;BME280;31437;58.350;13.828;2022-12-22T08:53:00;97925.75;;;3.19;nan
45525;BME280;31437;58.350;13.828;2022-12-22T08:55:25;97921.53;;;3.18;nan
45525;BME280;31437;58.350;13.828;2022-12-22T08:57:50;97926.69;;;3.18;nan
45525;BME280;31437;58.350;13.828;2022-12-22T09:00:16;97912.91;;;3.18;nan
45525;BME280;31437;58.350;13.828;2022-12-22T09:02:41;97920.69;;;3.18;nan
45525;BME280;31437;58.350;13.828;2022-12-22T09:05:06;97915.50;;;3.18;nan
45525;BME280;31437;58.350;13.828;2022-12-22T09:07:32;97926.69;;;3.18;nan
45525;BME280;31437;58.350;13.828;2022-12-22T09:09:57;97924.09;;;3.18;nan
45525;BME280;31437;58.350;13.828;2022-12-22T09:12:22;97912.91;;;3.18;nan
45525;BME280;31437;58.350;13.828;2022-12-22T09:14:48;97913.81;;;3.17;nan
45525;BME280;31437;58.350;13.828;2022-12-22T09:17:13;97918.00;;;3.19;nan
45525;BME280;31437;58.350;13.828;2022-12-22T09:19:38;97912.91;;;3.18;nan
45525;BME280;31437;58.350;13.828;2022-12-22T09:22:04;97917.16;;;3.19;nan
45525;BME280;31437;58.350;13.828;2022-12-22T09:24:29;97913.56;;;3.22;nan
45525;BME280;31437;58.350;13.828;2022-12-22T09:26:54;97902.44;;;3.19;nan
45525;BME280;31437;58.350;13.828;2022-12-22T09:29:20;97906.69;;;3.21;nan
45525;BME280;31437;58.350;13.828;2022-12-22T09:31:45;97904.09;;;3.21;nan
45525;BME280;31437;58.350;13.828;2022-12-22T09:34:10;97903.19;;;3.22;nan
45525;BME280;31437;58.350;13.828;2022-12-22T09:36:38;97902.25;;;3.23;nan
45525;BME280;31437;58.350;13.828;2022-12-22T09:39:04;97902.25;;;3.23;nan
45525;BME280;31437;58.350;13.828;2022-12-22T09:44:41;97897.00;;;3.24;nan
45525;BME280;31437;58.350;13.828;2022-12-22T09:46:47;97901.25;;;3.25;nan
45525;BME280;31437;58.350;13.828;2022-12-22T09:49:14;97893.38;;;3.27;nan
45525;BME280;31437;58.350;13.828;2022-12-22T09:51:41;97894.22;;;3.27;nan
45525;BME280;31437;58.350;13.828;2022-12-22T09:54:07;97893.28;;;3.28;nan
45525;BME280;31437;58.350;13.828;2022-12-22T09:56:34;97894.94;;;3.29;nan
45525;BME280;31437;58.350;13.828;2022-12-22T09:58:59;97894.84;;;3.31;nan
45525;BME280;31437;58.350;13.828;2022-12-22T10:06:39;97887.84;;;3.33;nan
45525;BME280;31437;58.350;13.828;2022-12-22T10:09:13;97890.31;;;3.34;nan
45525;BME280;31437;58.350;13.828;2022-12-22T10:11:48;97879.13;;;3.34;nan
45525;BME280;31437;58.350;13.828;2022-12-22T10:14:13;97884.31;;;3.34;nan
45525;BME280;31437;58.350;13.828;2022-12-22T10:16:38;97884.22;;;3.35;nan
45525;BME280;31437;58.350;13.828;2022-12-22T10:19:09;97879.75;;;3.37;nan
45525;BME280;31437;58.350;13.828;2022-12-22T10:21:35;97880.59;;;3.38;nan
45525;BME280;31437;58.350;13.828;2022-12-22T10:24:01;97881.44;;;3.38;nan
45525;BME280;31437;58.350;13.828;2022-12-22T10:26:38;97873.66;;;3.38;nan
45525;BME280;31437;58.350;13.828;2022-12-22T10:29:08;97871.91;;;3.39;nan
45525;BME280;31437;58.350;13.828;2022-12-22T10:31:35;97866.53;;;3.42;nan
45525;BME280;31437;58.350;13.828;2022-12-22T10:34:10;97867.25;;;3.44;nan
45525;BME280;31437;58.350;13.828;2022-12-22T10:36:36;97864.56;;;3.46;nan
45525;BME280;31437;58.350;13.828;2022-12-22T10:39:03;97866.97;;;3.49;nan
45525;BME280;31437;58.350;13.828;2022-12-22T10:41:50;97864.38;;;3.49;nan
45525;BME280;31437;58.350;13.828;2022-12-22T10:54:35;97849.28;;;3.55;nan
45525;BME280;31437;58.350;13.828;2022-12-22T10:57:02;97841.50;;;3.55;nan
45525;BME280;31437;58.350;13.828;2022-12-22T10:59:30;97845.66;;;3.58;nan
45525;BME280;31437;58.350;13.828;2022-12-22T11:02:15;97845.56;;;3.59;nan
45525;BME280;31437;58.350;13.828;2022-12-22T11:04:41;97846.41;;;3.60;nan
45525;BME280;31437;58.350;13.828;2022-12-22T11:07:06;97843.81;;;3.60;nan
45525;BME280;31437;58.350;13.828;2022-12-22T11:09:33;97831.69;;;3.60;nan
45525;BME280;31437;58.350;13.828;2022-12-22T11:14:47;97838.44;;;3.63;nan
45525;BME280;31437;58.350;13.828;2022-12-22T11:23:02;97837.59;;;3.62;nan
45525;BME280;31437;58.350;13.828;2022-12-22T11:25:40;97832.50;;;3.61;nan
45525;BME280;31437;58.350;13.828;2022-12-22T11:28:22;97835.22;;;3.59;nan
45525;BME280;31437;58.350;13.828;2022-12-22T11:31:16;97838.63;;;3.60;nan
45525;BME280;31437;58.350;13.828;2022-12-22T11:39:15;97826.97;;;3.53;nan
45525;BME280;31437;58.350;13.828;2022-12-22T11:41:48;97819.28;;;3.51;nan
45525;BME280;31437;58.350;13.828;2022-12-22T11:46:44;97821.16;;;3.49;nan
45525;BME280;31437;58.350;13.828;2022-12-22T11:49:29;97813.38;;;3.49;nan
45525;BME280;31437;58.350;13.828;2022-12-22T11:57:04;97810.06;;;3.47;nan
45525;BME280;31437;58.350;13.828;2022-12-22T12:07:42;97812.81;;;3.44;nan
45525;BME280;31437;58.350;13.828;2022-12-22T12:10:14;97810.22;;;3.44;nan
45525;BME280;31437;58.350;13.828;2022-12-22T12:13:03;97802.44;;;3.44;nan
45525;BME280;31437;58.350;13.828;2022-12-22T12:15:40;97799.97;;;3.42;nan
45525;BME280;31437;58.350;13.828;2022-12-22T12:20:48;97791.25;;;3.44;nan
45525;BME280;31437;58.350;13.828;2022-12-22T12:31:02;97788.78;;;3.42;nan
45525;BME280;31437;58.350;13.828;2022-12-22T12:33:48;97791.38;;;3.42;nan
45525;BME280;31437;58.350;13.828;2022-12-22T12:43:56;97784.69;;;3.38;nan
45525;BME280;31437;58.350;13.828;2022-12-22T12:52:07;97785.63;;;3.37;nan
45525;BME280;31437;58.350;13.828;2022-12-22T12:54:34;97787.41;;;3.36;nan
45525;BME280;31437;58.350;13.828;2022-12-22T13:02:27;97783.22;;;3.34;nan
45525;BME280;31437;58.350;13.828;2022-12-22T13:10:22;97775.66;;;3.31;nan
45525;BME280;31437;58.350;13.828;2022-12-22T13:12:49;97772.13;;;3.32;nan
45525;BME280;31437;58.350;13.828;2022-12-22T13:15:35;97774.81;;;3.30;nan
45525;BME280;31437;58.350;13.828;2022-12-22T13:20:54;97767.97;;;3.29;nan
45525;BME280;31437;58.350;13.828;2022-12-22T13:23:21;97771.41;;;3.30;nan
45525;BME280;31437;58.350;13.828;2022-12-22T13:25:47;97764.47;;;3.30;nan
45525;BME280;31437;58.350;13.828;2022-12-22T13:28:14;97770.47;;;3.31;nan
45525;BME280;31437;58.350;13.828;2022-12-22T13:30:44;97774.81;;;3.30;nan
45525;BME280;31437;58.350;13.828;2022-12-22T13:33:10;97773.88;;;3.31;nan
45525;BME280;31437;58.350;13.828;2022-12-22T13:35:37;97781.59;;;3.33;nan
45525;BME280;31437;58.350;13.828;2022-12-22T13:38:03;97775.53;;;3.32;nan
45525;BME280;31437;58.350;13.828;2022-12-22T13:40:29;97766.94;;;3.32;nan
45525;BME280;31437;58.350;13.828;2022-12-22T13:43:03;97770.38;;;3.32;nan
45525;BME280;31437;58.350;13.828;2022-12-22T13:45:38;97764.34;;;3.32;nan
45525;BME280;31437;58.350;13.828;2022-12-22T13:48:06;97765.19;;;3.32;nan
45525;BME280;31437;58.350;13.828;2022-12-22T13:50:33;97760.84;;;3.33;nan
45525;BME280;31437;58.350;13.828;2022-12-22T13:53:00;97761.69;;;3.33;nan
45525;BME280;31437;58.350;13.828;2022-12-22T13:55:27;97762.59;;;3.32;nan
45525;BME280;31437;58.350;13.828;2022-12-22T13:57:54;97766.94;;;3.32;nan
45525;BME280;31437;58.350;13.828;2022-12-22T14:00:22;97757.41;;;3.32;nan
45525;BME280;31437;58.350;13.828;2022-12-22T14:02:48;97762.69;;;3.31;nan
45525;BME280;31437;58.350;13.828;2022-12-22T14:05:14;97760.09;;;3.31;nan
45525;BME280;31437;58.350;13.828;2022-12-22T14:07:40;97761.03;;;3.30;nan
45525;BME280;31437;58.350;13.828;2022-12-22T14:10:27;97763.72;;;3.28;nan
45525;BME280;31437;58.350;13.828;2022-12-22T14:12:55;97762.78;;;3.29;nan
45525;BME280;31437;58.350;13.828;2022-12-22T14:15:21;97761.13;;;3.28;nan
45525;BME280;31437;58.350;13.828;2022-12-22T14:17:46;97766.22;;;3.30;nan
45525;BME280;31437;58.350;13.828;2022-12-22T14:20:16;97760.19;;;3.29;nan
45525;BME280;31437;58.350;13.828;2022-12-22T14:23:17;97757.59;;;3.29;nan
45525;BME280;31437;58.350;13.828;2022-12-22T14:25:36;97756.78;;;3.29;nan
45525;BME280;31437;58.350;13.828;2022-12-22T14:28:03;97753.34;;;3.28;nan
45525;BME280;31437;58.350;13.828;2022-12-22T14:30:34;97752.53;;;3.28;nan
45525;BME280;31437;58.350;13.828;2022-12-22T14:35:31;97751.78;;;3.26;nan
45525;BME280;31437;58.350;13.828;2022-12-22T14:38:16;97749.31;;;3.24;nan
45525;BME280;31437;58.350;13.828;2022-12-22T14:40:44;97738.19;;;3.22;nan
45525;BME280;31437;58.350;13.828;2022-12-22T14:45:42;97740.78;;;3.22;nan
45525;BME280;31437;58.350;13.828;2022-12-22T14:48:14;97735.59;;;3.22;nan
45525;BME280;31437;58.350;13.828;2022-12-22T14:50:47;97746.91;;;3.21;nan
45525;BME280;31437;58.350;13.828;2022-12-22T14:53:14;97736.63;;;3.19;nan
45525;BME280;31437;58.350;13.828;2022-12-22T14:55:50;97740.03;;;3.20;nan
45525;BME280;31437;58.350;13.828;2022-12-22T14:58:24;97737.66;;;3.17;nan
45525;BME280;31437;58.350;13.828;2022-12-22T15:01:13;97728.31;;;3.14;nan
45525;BME280;31437;58.350;13.828;2022-12-22T15:03:39;97728.41;;;3.13;nan
45525;BME280;31437;58.350;13.828;2022-12-22T15:06:21;97733.59;;;3.13;nan
45525;BME280;31437;58.350;13.828;2022-12-22T15:08:48;97734.53;;;3.12;nan
45525;BME280;31437;58.350;13.828;2022-12-22T15:11:14;97735.38;;;3.12;nan
45525;BME280;31437;58.350;13.828;2022-12-22T15:13:40;97733.69;;;3.11;nan
45525;BME280;31437;58.350;13.828;2022-12-22T15:16:08;97731.09;;;3.11;nan
45525;BME280;31437;58.350;13.828;2022-12-22T15:18:36;97732.84;;;3.11;nan
45525;BME280;31437;58.350;13.828;2022-12-22T15:21:02;97738.03;;;3.11;nan
45525;BME280;31437;58.350;13.828;2022-12-22T15:23:27;97734.69;;;3.09;nan
45525;BME280;31437;58.350;13.828;2022-12-22T15:25:53;97735.44;;;3.11;nan
45525;BME280;31437;58.350;13.828;2022-12-22T15:28:18;97727.66;;;3.11;nan
45525;BME280;31437;58.350;13.828;2022-12-22T15:30:43;97726.03;;;3.10;nan
45525;BME280;31437;58.350;13.828;2022-12-22T15:33:12;97722.59;;;3.09;nan
45525;BME280;31437;58.350;13.828;2022-12-22T15:35:39;97723.44;;;3.10;nan
45525;BME280;31437;58.350;13.828;2022-12-22T15:38:18;97726.03;;;3.10;nan
45525;BME280;31437;58.350;13.828;2022-12-22T15:40:43;97726.84;;;3.10;nan
45525;BME280;31437;58.350;13.828;2022-12-22T15:43:09;97725.91;;;3.11;nan
45525;BME280;31437;58.350;13.828;2022-12-22T15:45:35;97719.00;;;3.12;nan
45525;BME280;31437;58.350;13.828;2022-12-22T15:48:03;97715.53;;;3.11;nan
45525;BME280;31437;58.350;13.828;2022-12-22T15:50:31;97709.53;;;3.11;nan
45525;BME280;31437;58.350;13.828;2022-12-22T15:52:58;97718.06;;;3.13;nan
45525;BME280;31437;58.350;13.828;2022-12-22T15:55:24;97708.53;;;3.13;nan
45525;BME280;31437;58.350;13.828;2022-12-22T15:57:51;97707.69;;;3.13;nan
45525;BME280;31437;58.350;13.828;2022-12-22T16:00:17;97709.34;;;3.14;nan
45525;BME280;31437;58.350;13.828;2022-12-22T16:02:42;97701.56;;;3.14;nan
45525;BME280;31437;58.350;13.828;2022-12-22T16:05:08;97697.22;;;3.14;nan
45525;BME280;31437;58.350;13.828;2022-12-22T16:07:34;97701.50;;;3.15;nan
45525;BME280;31437;58.350;13.828;2022-12-22T16:10:01;97698.06;;;3.15;nan
45525;BME280;31437;58.350;13.828;2022-12-22T16:12:29;97697.03;;;3.17;nan
45525;BME280;31437;58.350;13.828;2022-12-22T16:14:55;97693.53;;;3.18;nan
45525;BME280;31437;58.350;13.828;2022-12-22T16:17:25;97689.16;;;3.19;nan
45525;BME280;31437;58.350;13.828;2022-12-22T16:19:51;97685.75;;;3.18;nan
45525;BME280;31437;58.350;13.828;2022-12-22T16:22:26;97692.69;;;3.18;nan
45525;BME280;31437;58.350;13.828;2022-12-22T16:24:53;97685.19;;;3.13;nan
45525;BME280;31437;58.350;13.828;2022-12-22T16:27:19;97678.88;;;3.17;nan
45525;BME280;31437;58.350;13.828;2022-12-22T16:29:47;97674.66;;;3.16;nan
45525;BME280;31437;58.350;13.828;2022-12-22T16:32:16;97674.75;;;3.15;nan
45525;BME280;31437;58.350;13.828;2022-12-22T16:34:45;97673.00;;;3.15;nan
45525;BME280;31437;58.350;13.828;2022-12-22T16:37:11;97664.47;;;3.13;nan
45525;BME280;31437;58.350;13.828;2022-12-22T16:39:36;97668.84;;;3.13;nan
45525;BME280;31437;58.350;13.828;2022-12-22T16:42:02;97667.06;;;3.13;nan
45525;BME280;31437;58.350;13.828;2022-12-22T16:44:27;97670.59;;;3.12;nan
45525;BME280;31437;58.350;13.828;2022-12-22T16:46:52;97664.59;;;3.12;nan
45525;BME280;31437;58.350;13.828;2022-12-22T16:49:21;97664.47;;;3.13;nan
45525;BME280;31437;58.350;13.828;2022-12-22T16:51:50;97661.06;;;3.13;nan
45525;BME280;31437;58.350;13.828;2022-12-22T16:54:16;97662.72;;;3.14;nan
45525;BME280;31437;58.350;13.828;2022-12-22T16:56:41;97652.34;;;3.14;nan
45525;BME280;31437;58.350;13.828;2022-12-22T16:59:07;97642.81;;;3.14;nan
45525;BME280;31437;58.350;13.828;2022-12-22T17:01:40;97639.41;;;3.14;nan
45525;BME280;31437;58.350;13.828;2022-12-22T17:04:50;97639.41;;;3.14;nan
45525;BME280;31437;58.350;13.828;2022-12-22T17:06:58;97641.06;;;3.15;nan
45525;BME280;31437;58.350;13.828;2022-12-22T17:09:25;97637.56;;;3.16;nan
45525;BME280;31437;58.350;13.828;2022-12-22T17:11:54;97636.59;;;3.17;nan
45525;BME280;31437;58.350;13.828;2022-12-22T17:14:32;97634.66;;;3.21;nan
45525;BME280;31437;58.350;13.828;2022-12-22T17:16:58;97636.22;;;3.23;nan
45525;BME280;31437;58.350;13.828;2022-12-22T17:19:24;97636.13;;;3.25;nan
45525;BME280;31437;58.350;13.828;2022-12-22T17:21:49;97632.50;;;3.27;nan
45525;BME280;31437;58.350;13.828;2022-12-22T17:24:17;97631.56;;;3.28;nan
45525;BME280;31437;58.350;13.828;2022-12-22T17:26:43;97626.31;;;3.30;nan
45525;BME280;31437;58.350;13.828;2022-12-22T17:29:15;97627.94;;;3.31;nan
45525;BME280;31437;58.350;13.828;2022-12-22T17:31:41;97621.00;;;3.31;nan
45525;BME280;31437;58.350;13.828;2022-12-22T17:34:14;97616.75;;;3.30;nan
45525;BME280;31437;58.350;13.828;2022-12-22T17:36:40;97611.47;;;3.32;nan
45525;BME280;31437;58.350;13.828;2022-12-22T17:39:08;97611.47;;;3.32;nan
45525;BME280;31437;58.350;13.828;2022-12-22T17:41:36;97609.81;;;3.31;nan
45525;BME280;31437;58.350;13.828;2022-12-22T17:44:01;97614.06;;;3.32;nan
45525;BME280;31437;58.350;13.828;2022-12-22T17:46:26;97605.47;;;3.31;nan
45525;BME280;31437;58.350;13.828;2022-12-22T17:48:51;97614.88;;;3.32;nan
45525;BME280;31437;58.350;13.828;2022-12-22T17:51:22;97607.97;;;3.33;nan
45525;BME280;31437;58.350;13.828;2022-12-22T17:53:48;97607.09;;;3.32;nan
45525;BME280;31437;58.350;13.828;2022-12-22T17:56:14;97601.00;;;3.33;nan
45525;BME280;31437;58.350;13.828;2022-12-22T17:58:40;97598.41;;;3.33;nan
45525;BME280;31437;58.350;13.828;2022-12-22T18:01:11;97594.06;;;3.34;nan